RJSN

Niigata Airport

Niigata, Japan
TAF RJSN 210505Z 2106/2212 25012KT 9999 FEW020 BECMG 2114/2116 19005KT BECMG 2200/2203 25012KT BECMG 2209/2212 19004KT
Issued Valid From Valid To
Jun-21 @ 05:05 UTC
(5 hours ago)
Jun-21 @ 06:00 UTC
(4 hours ago)
Jun-22 @ 12:00 UTC
(-1 days ago)
Jun-21 @ 06:00 to Jun-21 @ 14:00
TAF RJSN 210505Z 2106/2212 25012KT 9999 FEW020
Wind Visibility Clouds
250° at 12 knots 10,000+ meters
  • Few at 2,000' AGL
Becoming Jun-21 @ 14:00 to Jun-22 @ 00:00
BECMG 2114/2116 19005KT
Wind Visibility Clouds
190° at 5 knots 10,000+ meters
  • Few at 2,000' AGL
Becoming Jun-22 @ 00:00 to Jun-22 @ 09:00
BECMG 2200/2203 25012KT
Wind Visibility Clouds
250° at 12 knots 10,000+ meters
  • Few at 2,000' AGL
Becoming Jun-22 @ 09:00 to Jun-22 @ 12:00
BECMG 2209/2212 19004KT
Wind Visibility Clouds
190° at 4 knots 10,000+ meters
  • Few at 2,000' AGL
TAF RJSN 210505Z 2106/2212 25012KT 9999 FEW020 BECMG 2114/2116 19005KT BECMG 2200/2203 25012KT BECMG 2209/2212 19004KT
Issued Jun-21 @ 05:05 UTC
(5 hours ago)
Valid From Jun-21 @ 06:00 UTC
(4 hours ago)
Valid To Jun-22 @ 12:00 UTC
(-1 days ago)
Jun-21 @ 06:00 - Jun-21 @ 14:00
Wind Visibility
250° at 12 knots 10,000+ meters
Clouds
  • Few at 2,000' AGL
Becoming Jun-21 @ 14:00 - Jun-22 @ 00:00
Wind Visibility
190° at 5 knots 10,000+ meters
Clouds
  • Few at 2,000' AGL
Becoming Jun-22 @ 00:00 - Jun-22 @ 09:00
Wind Visibility
250° at 12 knots 10,000+ meters
Clouds
  • Few at 2,000' AGL
Becoming Jun-22 @ 09:00 - Jun-22 @ 12:00
Wind Visibility
190° at 4 knots 10,000+ meters
Clouds
  • Few at 2,000' AGL